sensor_id;sensor_type;location;lat;lon;timestamp;temperature;humidity
37446;DHT22;23307;51.136;14.942;2024-01-10T00:00:36;-8.30;99.90
37446;DHT22;23307;51.136;14.942;2024-01-10T00:03:02;-8.30;99.90
37446;DHT22;23307;51.136;14.942;2024-01-10T00:05:28;-8.30;99.90
37446;DHT22;23307;51.136;14.942;2024-01-10T00:07:54;-8.30;99.90
37446;DHT22;23307;51.136;14.942;2024-01-10T00:10:19;-8.40;99.90
37446;DHT22;23307;51.136;14.942;2024-01-10T00:12:47;-8.40;99.90
37446;DHT22;23307;51.136;14.942;2024-01-10T00:15:12;-8.40;99.90
37446;DHT22;23307;51.136;14.942;2024-01-10T00:17:39;-8.40;99.90
37446;DHT22;23307;51.136;14.942;2024-01-10T00:20:06;-8.40;99.90
37446;DHT22;23307;51.136;14.942;2024-01-10T00:22:32;-8.50;99.90
37446;DHT22;23307;51.136;14.942;2024-01-10T00:24:57;-8.50;99.90
37446;DHT22;23307;51.136;14.942;2024-01-10T00:27:23;-8.60;99.90
37446;DHT22;23307;51.136;14.942;2024-01-10T00:29:49;-8.50;99.90
37446;DHT22;23307;51.136;14.942;2024-01-10T00:32:16;-8.60;99.90
37446;DHT22;23307;51.136;14.942;2024-01-10T00:34:41;-8.60;99.90
37446;DHT22;23307;51.136;14.942;2024-01-10T00:37:07;-8.70;99.90
37446;DHT22;23307;51.136;14.942;2024-01-10T00:39:32;-8.70;99.90
37446;DHT22;23307;51.136;14.942;2024-01-10T00:41:58;-8.70;99.90
37446;DHT22;23307;51.136;14.942;2024-01-10T00:44:23;-8.70;99.90
37446;DHT22;23307;51.136;14.942;2024-01-10T00:46:49;-8.70;99.90
37446;DHT22;23307;51.136;14.942;2024-01-10T00:49:14;-8.80;99.90
37446;DHT22;23307;51.136;14.942;2024-01-10T00:51:40;-8.80;99.90
37446;DHT22;23307;51.136;14.942;2024-01-10T00:54:05;-8.80;99.90
37446;DHT22;23307;51.136;14.942;2024-01-10T00:56:31;-8.80;99.90
37446;DHT22;23307;51.136;14.942;2024-01-10T00:58:56;-8.80;99.90
37446;DHT22;23307;51.136;14.942;2024-01-10T01:01:23;-8.80;99.90
37446;DHT22;23307;51.136;14.942;2024-01-10T01:03:49;-8.80;99.90
37446;DHT22;23307;51.136;14.942;2024-01-10T01:06:14;-8.80;99.90
37446;DHT22;23307;51.136;14.942;2024-01-10T01:08:40;-8.80;99.90
37446;DHT22;23307;51.136;14.942;2024-01-10T01:11:05;-8.80;99.90
37446;DHT22;23307;51.136;14.942;2024-01-10T01:13:31;-8.80;99.90
37446;DHT22;23307;51.136;14.942;2024-01-10T01:15:56;-8.80;99.90
37446;DHT22;23307;51.136;14.942;2024-01-10T01:18:22;-8.70;99.90
37446;DHT22;23307;51.136;14.942;2024-01-10T01:20:47;-8.70;99.90
37446;DHT22;23307;51.136;14.942;2024-01-10T01:23:15;-8.70;99.90
37446;DHT22;23307;51.136;14.942;2024-01-10T01:25:41;-8.70;99.90
37446;DHT22;23307;51.136;14.942;2024-01-10T01:28:07;-8.60;99.90
37446;DHT22;23307;51.136;14.942;2024-01-10T01:30:32;-8.60;99.90
37446;DHT22;23307;51.136;14.942;2024-01-10T01:32:58;-8.70;99.90
37446;DHT22;23307;51.136;14.942;2024-01-10T01:35:23;-8.70;99.90
37446;DHT22;23307;51.136;14.942;2024-01-10T01:37:49;-8.70;99.90
37446;DHT22;23307;51.136;14.942;2024-01-10T01:40:15;-8.70;99.90
37446;DHT22;23307;51.136;14.942;2024-01-10T01:42:40;-8.70;99.90
37446;DHT22;23307;51.136;14.942;2024-01-10T01:45:06;-8.70;99.90
37446;DHT22;23307;51.136;14.942;2024-01-10T01:47:32;-8.70;99.90
37446;DHT22;23307;51.136;14.942;2024-01-10T01:49:57;-8.70;99.90
37446;DHT22;23307;51.136;14.942;2024-01-10T01:52:24;-8.70;99.90
37446;DHT22;23307;51.136;14.942;2024-01-10T01:54:49;-8.70;99.90
37446;DHT22;23307;51.136;14.942;2024-01-10T01:57:15;-8.70;99.90
37446;DHT22;23307;51.136;14.942;2024-01-10T01:59:41;-8.70;99.90
37446;DHT22;23307;51.136;14.942;2024-01-10T02:02:07;-8.70;99.90
37446;DHT22;23307;51.136;14.942;2024-01-10T02:04:33;-8.70;99.90
37446;DHT22;23307;51.136;14.942;2024-01-10T02:06:59;-8.80;99.90
37446;DHT22;23307;51.136;14.942;2024-01-10T02:09:25;-8.80;99.90
37446;DHT22;23307;51.136;14.942;2024-01-10T02:11:50;-8.70;99.90
37446;DHT22;23307;51.136;14.942;2024-01-10T02:14:16;-8.80;99.90
37446;DHT22;23307;51.136;14.942;2024-01-10T02:16:42;-8.80;99.90
37446;DHT22;23307;51.136;14.942;2024-01-10T02:19:21;-8.80;99.90
37446;DHT22;23307;51.136;14.942;2024-01-10T02:21:46;-8.80;99.90
37446;DHT22;23307;51.136;14.942;2024-01-10T02:24:12;-8.80;99.90
37446;DHT22;23307;51.136;14.942;2024-01-10T02:26:39;-8.80;99.90
37446;DHT22;23307;51.136;14.942;2024-01-10T02:29:04;-8.80;99.90
37446;DHT22;23307;51.136;14.942;2024-01-10T02:31:30;-8.80;99.90
37446;DHT22;23307;51.136;14.942;2024-01-10T02:33:55;-8.90;99.90
37446;DHT22;23307;51.136;14.942;2024-01-10T02:36:21;-8.80;99.90
37446;DHT22;23307;51.136;14.942;2024-01-10T02:38:46;-8.80;99.90
37446;DHT22;23307;51.136;14.942;2024-01-10T02:41:13;-8.80;99.90
37446;DHT22;23307;51.136;14.942;2024-01-10T02:43:38;-8.90;99.90
37446;DHT22;23307;51.136;14.942;2024-01-10T02:46:04;-8.90;99.90
37446;DHT22;23307;51.136;14.942;2024-01-10T02:48:29;-8.80;99.90
37446;DHT22;23307;51.136;14.942;2024-01-10T02:50:55;-8.80;99.90
37446;DHT22;23307;51.136;14.942;2024-01-10T02:53:21;-8.80;99.90
37446;DHT22;23307;51.136;14.942;2024-01-10T02:55:47;-8.90;99.90
37446;DHT22;23307;51.136;14.942;2024-01-10T02:58:13;-8.90;99.90
37446;DHT22;23307;51.136;14.942;2024-01-10T03:00:38;-9.00;99.90
37446;DHT22;23307;51.136;14.942;2024-01-10T03:03:04;-9.00;99.90
37446;DHT22;23307;51.136;14.942;2024-01-10T03:05:30;-9.00;99.90
37446;DHT22;23307;51.136;14.942;2024-01-10T03:07:55;-8.90;99.90
37446;DHT22;23307;51.136;14.942;2024-01-10T03:10:21;-9.00;99.90
37446;DHT22;23307;51.136;14.942;2024-01-10T03:12:46;-9.00;99.90
37446;DHT22;23307;51.136;14.942;2024-01-10T03:15:12;-9.10;99.90
37446;DHT22;23307;51.136;14.942;2024-01-10T03:17:37;-9.10;99.90
37446;DHT22;23307;51.136;14.942;2024-01-10T03:20:03;-9.10;99.90
37446;DHT22;23307;51.136;14.942;2024-01-10T03:22:30;-9.10;99.90
37446;DHT22;23307;51.136;14.942;2024-01-10T03:24:57;-9.10;99.90
37446;DHT22;23307;51.136;14.942;2024-01-10T03:27:22;-9.10;99.90
37446;DHT22;23307;51.136;14.942;2024-01-10T03:29:48;-9.10;99.90
37446;DHT22;23307;51.136;14.942;2024-01-10T03:32:13;-9.20;99.90
37446;DHT22;23307;51.136;14.942;2024-01-10T03:34:40;-9.30;99.90
37446;DHT22;23307;51.136;14.942;2024-01-10T03:37:06;-9.30;99.90
37446;DHT22;23307;51.136;14.942;2024-01-10T03:39:31;-9.40;99.90
37446;DHT22;23307;51.136;14.942;2024-01-10T03:41:57;-9.40;99.90
37446;DHT22;23307;51.136;14.942;2024-01-10T03:44:22;-9.40;99.90
37446;DHT22;23307;51.136;14.942;2024-01-10T03:46:48;-9.30;99.90
37446;DHT22;23307;51.136;14.942;2024-01-10T03:49:13;-9.30;99.90
37446;DHT22;23307;51.136;14.942;2024-01-10T03:51:39;-9.30;99.90
37446;DHT22;23307;51.136;14.942;2024-01-10T03:54:06;-9.30;99.90
37446;DHT22;23307;51.136;14.942;2024-01-10T03:56:31;-9.30;99.90
37446;DHT22;23307;51.136;14.942;2024-01-10T03:58:57;-9.20;99.90
37446;DHT22;23307;51.136;14.942;2024-01-10T04:01:23;-9.20;99.90
37446;DHT22;23307;51.136;14.942;2024-01-10T04:03:51;-9.20;99.90
37446;DHT22;23307;51.136;14.942;2024-01-10T04:06:16;-9.20;99.90
37446;DHT22;23307;51.136;14.942;2024-01-10T04:08:42;-9.10;99.90
37446;DHT22;23307;51.136;14.942;2024-01-10T04:11:08;-9.10;99.90
37446;DHT22;23307;51.136;14.942;2024-01-10T04:13:34;-9.10;99.90
37446;DHT22;23307;51.136;14.942;2024-01-10T04:16:00;-9.10;99.90
37446;DHT22;23307;51.136;14.942;2024-01-10T04:18:25;-9.20;99.90
37446;DHT22;23307;51.136;14.942;2024-01-10T04:20:51;-9.10;99.90
37446;DHT22;23307;51.136;14.942;2024-01-10T04:23:17;-9.20;99.90
37446;DHT22;23307;51.136;14.942;2024-01-10T04:25:43;-9.20;99.90
37446;DHT22;23307;51.136;14.942;2024-01-10T04:28:08;-9.20;99.90
37446;DHT22;23307;51.136;14.942;2024-01-10T04:30:33;-9.10;99.90
37446;DHT22;23307;51.136;14.942;2024-01-10T04:32:59;-9.20;99.90
37446;DHT22;23307;51.136;14.942;2024-01-10T04:35:25;-9.10;99.90
37446;DHT22;23307;51.136;14.942;2024-01-10T04:37:50;-9.10;99.90
37446;DHT22;23307;51.136;14.942;2024-01-10T04:40:16;-9.00;99.90
37446;DHT22;23307;51.136;14.942;2024-01-10T04:42:41;-8.90;99.90
37446;DHT22;23307;51.136;14.942;2024-01-10T04:45:07;-8.80;99.90
37446;DHT22;23307;51.136;14.942;2024-01-10T04:47:33;-8.70;99.90
37446;DHT22;23307;51.136;14.942;2024-01-10T04:49:58;-8.70;99.90
37446;DHT22;23307;51.136;14.942;2024-01-10T04:52:24;-8.60;99.90
37446;DHT22;23307;51.136;14.942;2024-01-10T04:54:49;-8.60;99.90
37446;DHT22;23307;51.136;14.942;2024-01-10T04:57:15;-8.50;99.90
37446;DHT22;23307;51.136;14.942;2024-01-10T04:59:41;-8.50;99.90
37446;DHT22;23307;51.136;14.942;2024-01-10T05:02:07;-8.50;99.90
37446;DHT22;23307;51.136;14.942;2024-01-10T05:04:32;-8.40;99.90
37446;DHT22;23307;51.136;14.942;2024-01-10T05:06:58;-8.40;99.90
37446;DHT22;23307;51.136;14.942;2024-01-10T05:09:23;-8.40;99.90
37446;DHT22;23307;51.136;14.942;2024-01-10T05:11:49;-8.40;99.90
37446;DHT22;23307;51.136;14.942;2024-01-10T05:14:17;-8.40;99.90
37446;DHT22;23307;51.136;14.942;2024-01-10T05:16:45;-8.40;99.90
37446;DHT22;23307;51.136;14.942;2024-01-10T05:19:10;-8.40;99.90
37446;DHT22;23307;51.136;14.942;2024-01-10T05:21:36;-8.40;99.90
37446;DHT22;23307;51.136;14.942;2024-01-10T05:24:02;-8.50;99.90
37446;DHT22;23307;51.136;14.942;2024-01-10T05:26:28;-8.50;99.90
37446;DHT22;23307;51.136;14.942;2024-01-10T05:28:54;-8.50;99.90
37446;DHT22;23307;51.136;14.942;2024-01-10T05:31:19;-8.50;99.90
37446;DHT22;23307;51.136;14.942;2024-01-10T05:33:45;-8.50;99.90
37446;DHT22;23307;51.136;14.942;2024-01-10T05:36:10;-8.50;99.90
37446;DHT22;23307;51.136;14.942;2024-01-10T05:38:38;-8.50;99.90
37446;DHT22;23307;51.136;14.942;2024-01-10T05:41:05;-8.50;99.90
37446;DHT22;23307;51.136;14.942;2024-01-10T05:43:30;-8.50;99.90
37446;DHT22;23307;51.136;14.942;2024-01-10T05:45:57;-8.50;99.90
37446;DHT22;23307;51.136;14.942;2024-01-10T05:48:22;-8.40;99.90
37446;DHT22;23307;51.136;14.942;2024-01-10T05:50:48;-8.40;99.90
37446;DHT22;23307;51.136;14.942;2024-01-10T05:53:13;-8.40;99.90
37446;DHT22;23307;51.136;14.942;2024-01-10T05:55:44;-8.40;99.90
37446;DHT22;23307;51.136;14.942;2024-01-10T05:58:11;-8.50;99.90
37446;DHT22;23307;51.136;14.942;2024-01-10T06:00:37;-8.60;99.90
37446;DHT22;23307;51.136;14.942;2024-01-10T06:03:02;-8.60;99.90
37446;DHT22;23307;51.136;14.942;2024-01-10T06:05:28;-8.70;99.90
37446;DHT22;23307;51.136;14.942;2024-01-10T06:07:53;-8.80;99.90
37446;DHT22;23307;51.136;14.942;2024-01-10T06:10:19;-8.80;99.90
37446;DHT22;23307;51.136;14.942;2024-01-10T06:12:45;-8.80;99.90
37446;DHT22;23307;51.136;14.942;2024-01-10T06:15:10;-8.90;99.90
37446;DHT22;23307;51.136;14.942;2024-01-10T06:17:36;-9.00;99.90
37446;DHT22;23307;51.136;14.942;2024-01-10T06:20:01;-9.00;99.90
37446;DHT22;23307;51.136;14.942;2024-01-10T06:22:28;-9.10;99.90
37446;DHT22;23307;51.136;14.942;2024-01-10T06:24:54;-9.10;99.90
37446;DHT22;23307;51.136;14.942;2024-01-10T06:27:19;-9.20;99.90
37446;DHT22;23307;51.136;14.942;2024-01-10T06:29:45;-9.20;99.90
37446;DHT22;23307;51.136;14.942;2024-01-10T06:32:11;-9.20;99.90
37446;DHT22;23307;51.136;14.942;2024-01-10T06:34:36;-9.20;99.90
37446;DHT22;23307;51.136;14.942;2024-01-10T06:37:02;-9.10;99.90
37446;DHT22;23307;51.136;14.942;2024-01-10T06:39:28;-9.10;99.90
37446;DHT22;23307;51.136;14.942;2024-01-10T06:41:54;-9.10;99.90
37446;DHT22;23307;51.136;14.942;2024-01-10T06:44:20;-9.10;99.90
37446;DHT22;23307;51.136;14.942;2024-01-10T06:46:46;-9.10;99.90
37446;DHT22;23307;51.136;14.942;2024-01-10T06:49:11;-9.10;99.90
37446;DHT22;23307;51.136;14.942;2024-01-10T06:51:37;-9.10;99.90
37446;DHT22;23307;51.136;14.942;2024-01-10T06:54:03;-9.10;99.90
37446;DHT22;23307;51.136;14.942;2024-01-10T06:56:30;-9.10;99.90
37446;DHT22;23307;51.136;14.942;2024-01-10T06:58:56;-9.10;99.90
37446;DHT22;23307;51.136;14.942;2024-01-10T07:01:21;-9.10;99.90
37446;DHT22;23307;51.136;14.942;2024-01-10T07:03:47;-9.10;99.90
37446;DHT22;23307;51.136;14.942;2024-01-10T07:06:13;-9.00;99.90
37446;DHT22;23307;51.136;14.942;2024-01-10T07:08:42;-9.00;99.90
37446;DHT22;23307;51.136;14.942;2024-01-10T07:11:09;-9.00;99.90
37446;DHT22;23307;51.136;14.942;2024-01-10T07:13:36;-8.90;99.90
37446;DHT22;23307;51.136;14.942;2024-01-10T07:16:02;-8.80;99.90
37446;DHT22;23307;51.136;14.942;2024-01-10T07:18:28;-8.80;99.90
37446;DHT22;23307;51.136;14.942;2024-01-10T07:20:54;-8.80;99.90
37446;DHT22;23307;51.136;14.942;2024-01-10T07:23:19;-8.70;99.90
37446;DHT22;23307;51.136;14.942;2024-01-10T07:25:45;-8.70;99.90
37446;DHT22;23307;51.136;14.942;2024-01-10T07:28:11;-8.70;99.90
37446;DHT22;23307;51.136;14.942;2024-01-10T07:30:36;-8.60;99.90
37446;DHT22;23307;51.136;14.942;2024-01-10T07:33:02;-8.60;99.90
37446;DHT22;23307;51.136;14.942;2024-01-10T07:35:27;-8.50;99.90
37446;DHT22;23307;51.136;14.942;2024-01-10T07:37:54;-8.50;99.90
37446;DHT22;23307;51.136;14.942;2024-01-10T07:40:20;-8.50;99.90
37446;DHT22;23307;51.136;14.942;2024-01-10T07:42:45;-8.50;99.90
37446;DHT22;23307;51.136;14.942;2024-01-10T07:45:11;-8.50;99.90
37446;DHT22;23307;51.136;14.942;2024-01-10T07:47:37;-8.50;99.90
37446;DHT22;23307;51.136;14.942;2024-01-10T07:50:07;-8.40;99.90
37446;DHT22;23307;51.136;14.942;2024-01-10T07:52:33;-8.40;99.90
37446;DHT22;23307;51.136;14.942;2024-01-10T07:54:59;-8.30;99.90
37446;DHT22;23307;51.136;14.942;2024-01-10T07:57:25;-8.30;99.90
37446;DHT22;23307;51.136;14.942;2024-01-10T07:59:52;-8.20;99.90
37446;DHT22;23307;51.136;14.942;2024-01-10T08:02:18;-8.20;99.90
37446;DHT22;23307;51.136;14.942;2024-01-10T08:04:43;-8.10;99.90
37446;DHT22;23307;51.136;14.942;2024-01-10T08:07:09;-8.10;99.90
37446;DHT22;23307;51.136;14.942;2024-01-10T08:09:35;-8.00;99.90
37446;DHT22;23307;51.136;14.942;2024-01-10T08:12:02;-7.90;99.90
37446;DHT22;23307;51.136;14.942;2024-01-10T08:14:28;-7.90;99.90
37446;DHT22;23307;51.136;14.942;2024-01-10T08:16:53;-7.90;99.90
37446;DHT22;23307;51.136;14.942;2024-01-10T08:19:20;-7.80;99.90
37446;DHT22;23307;51.136;14.942;2024-01-10T08:21:45;-7.80;99.90
37446;DHT22;23307;51.136;14.942;2024-01-10T08:24:11;-7.70;99.90
37446;DHT22;23307;51.136;14.942;2024-01-10T08:26:36;-7.70;99.90
37446;DHT22;23307;51.136;14.942;2024-01-10T08:29:03;-7.60;99.90
37446;DHT22;23307;51.136;14.942;2024-01-10T08:31:29;-7.50;99.90
37446;DHT22;23307;51.136;14.942;2024-01-10T08:33:54;-7.40;99.90
37446;DHT22;23307;51.136;14.942;2024-01-10T08:36:22;-7.40;99.90
37446;DHT22;23307;51.136;14.942;2024-01-10T08:38:49;-7.30;99.90
37446;DHT22;23307;51.136;14.942;2024-01-10T08:41:15;-7.20;99.90
37446;DHT22;23307;51.136;14.942;2024-01-10T08:43:41;-7.20;99.90
37446;DHT22;23307;51.136;14.942;2024-01-10T08:46:08;-7.20;99.90
37446;DHT22;23307;51.136;14.942;2024-01-10T08:48:33;-7.00;99.90
37446;DHT22;23307;51.136;14.942;2024-01-10T08:50:59;-7.00;99.90
37446;DHT22;23307;51.136;14.942;2024-01-10T08:53:25;-6.90;99.90
37446;DHT22;23307;51.136;14.942;2024-01-10T08:55:50;-6.80;99.90
37446;DHT22;23307;51.136;14.942;2024-01-10T08:58:16;-6.80;99.90
37446;DHT22;23307;51.136;14.942;2024-01-10T09:00:41;-6.70;99.90
37446;DHT22;23307;51.136;14.942;2024-01-10T09:03:07;-6.60;99.90
37446;DHT22;23307;51.136;14.942;2024-01-10T09:05:32;-6.50;99.90
37446;DHT22;23307;51.136;14.942;2024-01-10T09:07:58;-6.40;99.90
37446;DHT22;23307;51.136;14.942;2024-01-10T09:10:23;-6.30;99.90
37446;DHT22;23307;51.136;14.942;2024-01-10T09:12:53;-6.20;99.90
37446;DHT22;23307;51.136;14.942;2024-01-10T09:15:19;-6.10;99.90
37446;DHT22;23307;51.136;14.942;2024-01-10T09:17:44;-6.00;99.90
37446;DHT22;23307;51.136;14.942;2024-01-10T09:20:11;-5.90;99.90
37446;DHT22;23307;51.136;14.942;2024-01-10T09:22:37;-5.80;99.90
37446;DHT22;23307;51.136;14.942;2024-01-10T09:25:04;-5.70;99.90
37446;DHT22;23307;51.136;14.942;2024-01-10T09:27:31;-5.70;99.90
37446;DHT22;23307;51.136;14.942;2024-01-10T09:29:57;-5.50;99.90
37446;DHT22;23307;51.136;14.942;2024-01-10T09:32:22;-5.40;99.90
37446;DHT22;23307;51.136;14.942;2024-01-10T09:34:48;-5.30;99.90
37446;DHT22;23307;51.136;14.942;2024-01-10T09:37:13;-5.20;99.90
37446;DHT22;23307;51.136;14.942;2024-01-10T09:39:39;-5.10;99.90
37446;DHT22;23307;51.136;14.942;2024-01-10T09:42:04;-4.90;99.90
37446;DHT22;23307;51.136;14.942;2024-01-10T09:44:32;-4.80;99.90
37446;DHT22;23307;51.136;14.942;2024-01-10T09:46:58;-4.70;99.90
37446;DHT22;23307;51.136;14.942;2024-01-10T09:49:24;-4.60;99.90
37446;DHT22;23307;51.136;14.942;2024-01-10T09:51:53;-4.40;99.90
37446;DHT22;23307;51.136;14.942;2024-01-10T09:54:24;-4.20;99.90
37446;DHT22;23307;51.136;14.942;2024-01-10T09:56:51;-4.10;99.90
37446;DHT22;23307;51.136;14.942;2024-01-10T09:59:16;-4.00;99.90
37446;DHT22;23307;51.136;14.942;2024-01-10T10:01:42;-3.90;99.90
37446;DHT22;23307;51.136;14.942;2024-01-10T10:04:11;-3.70;99.90
37446;DHT22;23307;51.136;14.942;2024-01-10T10:06:37;-3.60;99.90
37446;DHT22;23307;51.136;14.942;2024-01-10T10:09:02;-3.50;99.90
37446;DHT22;23307;51.136;14.942;2024-01-10T10:11:28;-3.40;99.90
37446;DHT22;23307;51.136;14.942;2024-01-10T10:13:53;-3.20;99.90
37446;DHT22;23307;51.136;14.942;2024-01-10T10:16:26;-3.10;99.90
37446;DHT22;23307;51.136;14.942;2024-01-10T10:18:51;-3.10;99.90
37446;DHT22;23307;51.136;14.942;2024-01-10T10:21:24;-2.90;99.90
37446;DHT22;23307;51.136;14.942;2024-01-10T10:23:59;-2.80;99.90
37446;DHT22;23307;51.136;14.942;2024-01-10T10:26:26;-2.70;99.90
37446;DHT22;23307;51.136;14.942;2024-01-10T10:28:52;-2.60;99.90
37446;DHT22;23307;51.136;14.942;2024-01-10T10:31:18;-2.50;99.90
37446;DHT22;23307;51.136;14.942;2024-01-10T10:33:44;-2.40;99.90
37446;DHT22;23307;51.136;14.942;2024-01-10T10:36:10;-2.20;99.90
37446;DHT22;23307;51.136;14.942;2024-01-10T10:38:36;-2.10;99.90
37446;DHT22;23307;51.136;14.942;2024-01-10T10:41:05;-2.00;99.90
37446;DHT22;23307;51.136;14.942;2024-01-10T10:43:34;-1.90;99.90
37446;DHT22;23307;51.136;14.942;2024-01-10T10:46:01;-1.80;99.90
37446;DHT22;23307;51.136;14.942;2024-01-10T10:48:28;-1.70;99.90
37446;DHT22;23307;51.136;14.942;2024-01-10T10:51:11;-1.60;99.90
37446;DHT22;23307;51.136;14.942;2024-01-10T10:53:38;-1.50;99.90
37446;DHT22;23307;51.136;14.942;2024-01-10T10:56:05;-1.40;99.90
37446;DHT22;23307;51.136;14.942;2024-01-10T10:58:42;-1.30;99.90
37446;DHT22;23307;51.136;14.942;2024-01-10T11:01:09;-1.20;99.90
37446;DHT22;23307;51.136;14.942;2024-01-10T11:03:37;-1.10;99.90
37446;DHT22;23307;51.136;14.942;2024-01-10T11:06:04;-1.00;99.90
37446;DHT22;23307;51.136;14.942;2024-01-10T11:08:37;-0.90;99.90
37446;DHT22;23307;51.136;14.942;2024-01-10T11:11:07;-0.80;99.90
37446;DHT22;23307;51.136;14.942;2024-01-10T11:13:54;-0.70;99.90
37446;DHT22;23307;51.136;14.942;2024-01-10T11:16:38;-0.60;99.90
37446;DHT22;23307;51.136;14.942;2024-01-10T11:25:26;-0.30;99.90
37446;DHT22;23307;51.136;14.942;2024-01-10T11:27:54;-0.30;99.90
37446;DHT22;23307;51.136;14.942;2024-01-10T11:30:36;-0.20;99.90
37446;DHT22;23307;51.136;14.942;2024-01-10T11:33:22;-0.10;99.90
37446;DHT22;23307;51.136;14.942;2024-01-10T11:36:17;0.10;99.90
37446;DHT22;23307;51.136;14.942;2024-01-10T11:46:55;0.50;99.90
37446;DHT22;23307;51.136;14.942;2024-01-10T11:49:23;0.50;99.90
37446;DHT22;23307;51.136;14.942;2024-01-10T11:51:57;0.60;99.90
37446;DHT22;23307;51.136;14.942;2024-01-10T11:54:39;0.70;99.90
37446;DHT22;23307;51.136;14.942;2024-01-10T11:57:26;0.80;99.90
37446;DHT22;23307;51.136;14.942;2024-01-10T11:59:54;0.90;99.90
37446;DHT22;23307;51.136;14.942;2024-01-10T12:02:21;1.00;99.90
37446;DHT22;23307;51.136;14.942;2024-01-10T12:04:47;1.10;99.90
37446;DHT22;23307;51.136;14.942;2024-01-10T12:07:14;1.30;99.90
37446;DHT22;23307;51.136;14.942;2024-01-10T12:09:40;1.40;99.90
37446;DHT22;23307;51.136;14.942;2024-01-10T12:12:06;1.40;99.90
37446;DHT22;23307;51.136;14.942;2024-01-10T12:14:31;1.60;99.90
37446;DHT22;23307;51.136;14.942;2024-01-10T12:16:58;1.70;99.90
37446;DHT22;23307;51.136;14.942;2024-01-10T12:19:24;1.70;99.90
37446;DHT22;23307;51.136;14.942;2024-01-10T12:21:50;1.90;99.90
37446;DHT22;23307;51.136;14.942;2024-01-10T12:24:15;2.00;99.90
37446;DHT22;23307;51.136;14.942;2024-01-10T12:26:48;2.10;99.90
37446;DHT22;23307;51.136;14.942;2024-01-10T12:29:17;2.20;99.90
37446;DHT22;23307;51.136;14.942;2024-01-10T12:31:43;2.30;99.90
37446;DHT22;23307;51.136;14.942;2024-01-10T12:34:11;2.30;99.90
37446;DHT22;23307;51.136;14.942;2024-01-10T12:36:36;2.40;99.90
37446;DHT22;23307;51.136;14.942;2024-01-10T12:39:02;2.50;99.90
37446;DHT22;23307;51.136;14.942;2024-01-10T12:41:29;2.60;99.70
37446;DHT22;23307;51.136;14.942;2024-01-10T12:43:55;2.60;98.60
37446;DHT22;23307;51.136;14.942;2024-01-10T12:46:21;2.60;97.80
37446;DHT22;23307;51.136;14.942;2024-01-10T12:49:02;2.80;98.10
37446;DHT22;23307;51.136;14.942;2024-01-10T12:51:29;2.90;97.40
37446;DHT22;23307;51.136;14.942;2024-01-10T12:53:55;2.90;96.10
37446;DHT22;23307;51.136;14.942;2024-01-10T12:56:21;2.90;95.70
37446;DHT22;23307;51.136;14.942;2024-01-10T12:58:47;2.90;95.10
37446;DHT22;23307;51.136;14.942;2024-01-10T13:01:12;3.00;95.80
37446;DHT22;23307;51.136;14.942;2024-01-10T13:03:38;3.10;96.00
37446;DHT22;23307;51.136;14.942;2024-01-10T13:06:05;3.30;95.50
37446;DHT22;23307;51.136;14.942;2024-01-10T13:08:30;3.40;95.20
37446;DHT22;23307;51.136;14.942;2024-01-10T13:10:57;3.50;94.80
37446;DHT22;23307;51.136;14.942;2024-01-10T13:13:23;3.60;94.40
37446;DHT22;23307;51.136;14.942;2024-01-10T13:15:49;3.60;94.00
37446;DHT22;23307;51.136;14.942;2024-01-10T13:18:14;3.70;93.40
37446;DHT22;23307;51.136;14.942;2024-01-10T13:20:41;3.80;92.60
37446;DHT22;23307;51.136;14.942;2024-01-10T13:23:06;3.80;92.40
37446;DHT22;23307;51.136;14.942;2024-01-10T13:25:33;3.90;92.40
37446;DHT22;23307;51.136;14.942;2024-01-10T13:27:59;4.00;91.90
37446;DHT22;23307;51.136;14.942;2024-01-10T13:30:26;4.10;91.50
37446;DHT22;23307;51.136;14.942;2024-01-10T13:32:51;4.20;90.80
37446;DHT22;23307;51.136;14.942;2024-01-10T13:35:17;4.20;90.20
37446;DHT22;23307;51.136;14.942;2024-01-10T13:37:43;4.20;89.70
37446;DHT22;23307;51.136;14.942;2024-01-10T13:40:09;4.10;88.00
37446;DHT22;23307;51.136;14.942;2024-01-10T13:42:38;4.00;87.50
37446;DHT22;23307;51.136;14.942;2024-01-10T13:45:05;3.80;86.20
37446;DHT22;23307;51.136;14.942;2024-01-10T13:47:32;3.40;84.80
37446;DHT22;23307;51.136;14.942;2024-01-10T13:49:59;3.20;85.00
37446;DHT22;23307;51.136;14.942;2024-01-10T13:52:25;3.00;85.20
37446;DHT22;23307;51.136;14.942;2024-01-10T13:54:50;2.90;86.30
37446;DHT22;23307;51.136;14.942;2024-01-10T13:57:17;2.70;86.70
37446;DHT22;23307;51.136;14.942;2024-01-10T13:59:42;2.50;87.30
37446;DHT22;23307;51.136;14.942;2024-01-10T14:02:08;2.40;88.80
37446;DHT22;23307;51.136;14.942;2024-01-10T14:04:34;2.40;89.60
37446;DHT22;23307;51.136;14.942;2024-01-10T14:07:00;2.30;90.00
37446;DHT22;23307;51.136;14.942;2024-01-10T14:09:25;2.20;90.30
37446;DHT22;23307;51.136;14.942;2024-01-10T14:11:51;2.10;90.60
37446;DHT22;23307;51.136;14.942;2024-01-10T14:14:17;2.10;90.90
37446;DHT22;23307;51.136;14.942;2024-01-10T14:16:43;2.00;90.90
37446;DHT22;23307;51.136;14.942;2024-01-10T14:19:09;1.90;91.20
37446;DHT22;23307;51.136;14.942;2024-01-10T14:21:34;1.90;91.50
37446;DHT22;23307;51.136;14.942;2024-01-10T14:24:00;1.80;91.70
37446;DHT22;23307;51.136;14.942;2024-01-10T14:26:26;1.80;91.90
37446;DHT22;23307;51.136;14.942;2024-01-10T14:28:52;1.70;92.10
37446;DHT22;23307;51.136;14.942;2024-01-10T14:31:22;1.60;92.20
37446;DHT22;23307;51.136;14.942;2024-01-10T14:33:48;1.60;92.40
37446;DHT22;23307;51.136;14.942;2024-01-10T14:36:14;1.50;92.50
37446;DHT22;23307;51.136;14.942;2024-01-10T14:38:40;1.50;92.60
37446;DHT22;23307;51.136;14.942;2024-01-10T14:41:07;1.40;92.70
37446;DHT22;23307;51.136;14.942;2024-01-10T14:43:33;1.30;92.80
37446;DHT22;23307;51.136;14.942;2024-01-10T14:45:58;1.20;93.00
37446;DHT22;23307;51.136;14.942;2024-01-10T14:48:24;1.10;93.20
37446;DHT22;23307;51.136;14.942;2024-01-10T14:50:49;1.10;93.40
37446;DHT22;23307;51.136;14.942;2024-01-10T14:53:15;1.00;93.70
37446;DHT22;23307;51.136;14.942;2024-01-10T14:55:40;1.00;93.80
37446;DHT22;23307;51.136;14.942;2024-01-10T14:58:06;1.00;93.90
37446;DHT22;23307;51.136;14.942;2024-01-10T15:00:32;1.00;93.70
37446;DHT22;23307;51.136;14.942;2024-01-10T15:02:58;0.90;93.60
37446;DHT22;23307;51.136;14.942;2024-01-10T15:05:23;0.90;93.80
37446;DHT22;23307;51.136;14.942;2024-01-10T15:07:50;0.80;93.90
37446;DHT22;23307;51.136;14.942;2024-01-10T15:10:16;0.80;94.00
37446;DHT22;23307;51.136;14.942;2024-01-10T15:12:42;0.70;93.80
37446;DHT22;23307;51.136;14.942;2024-01-10T15:15:07;0.60;93.90
37446;DHT22;23307;51.136;14.942;2024-01-10T15:17:33;0.50;94.10
37446;DHT22;23307;51.136;14.942;2024-01-10T15:19:59;0.50;94.10
37446;DHT22;23307;51.136;14.942;2024-01-10T15:22:25;0.40;94.20
37446;DHT22;23307;51.136;14.942;2024-01-10T15:24:52;0.40;94.40
37446;DHT22;23307;51.136;14.942;2024-01-10T15:27:17;0.30;94.40
37446;DHT22;23307;51.136;14.942;2024-01-10T15:29:44;0.30;94.50